createdAt,value
2018-11-04T00:00:18.471Z,21.20
2018-11-04T00:02:46.210Z,23.90
2018-11-04T00:05:13.556Z,24.87
2018-11-04T00:07:40.739Z,26.48
2018-11-04T00:10:08.471Z,24.95
2018-11-04T00:12:35.680Z,23.62
2018-11-04T00:15:02.895Z,21.25
2018-11-04T00:17:30.091Z,23.15
2018-11-04T00:19:57.266Z,23.07
2018-11-04T00:22:24.460Z,23.95
2018-11-04T00:24:51.664Z,20.92
2018-11-04T00:27:18.880Z,21.62
2018-11-04T00:29:46.073Z,26.70
2018-11-04T00:32:13.288Z,21.40
2018-11-04T00:34:40.482Z,20.32
2018-11-04T00:37:08.043Z,19.85
2018-11-04T00:39:35.235Z,23.60
2018-11-04T00:42:02.426Z,22.20
2018-11-04T00:44:29.685Z,20.08
2018-11-04T00:46:56.867Z,19.98
2018-11-04T00:49:24.064Z,21.93
2018-11-04T00:51:51.305Z,20.32
2018-11-04T00:54:18.511Z,26.50
2018-11-04T00:56:45.683Z,18.77
2018-11-04T00:59:12.909Z,19.82
2018-11-04T01:01:40.101Z,18.60
2018-11-04T01:04:07.302Z,22.75
2018-11-04T01:06:34.490Z,21.45
2018-11-04T01:09:01.696Z,17.23
2018-11-04T01:11:28.888Z,17.27
2018-11-04T01:13:56.064Z,18.35
2018-11-04T01:16:23.259Z,19.10
2018-11-04T01:18:50.468Z,20.52
2018-11-04T01:21:17.652Z,17.42
2018-11-04T01:23:44.850Z,18.50
2018-11-04T01:26:12.041Z,17.30
2018-11-04T01:28:39.232Z,14.68
2018-11-04T01:31:06.426Z,15.55
2018-11-04T01:33:33.671Z,13.05
2018-11-04T01:36:00.854Z,12.98
2018-11-04T01:38:28.097Z,14.13
2018-11-04T01:40:55.286Z,15.70
2018-11-04T01:43:22.488Z,13.08
2018-11-04T01:45:49.671Z,14.90
2018-11-04T01:48:16.864Z,11.95
2018-11-04T01:50:44.148Z,12.78
2018-11-04T01:53:11.354Z,12.37
2018-11-04T01:55:38.556Z,14.73
2018-11-04T01:58:05.760Z,11.45
2018-11-04T02:00:32.943Z,12.85
2018-11-04T02:03:00.137Z,13.40
2018-11-04T02:05:27.324Z,13.08
2018-11-04T02:07:54.502Z,11.60
2018-11-04T02:10:21.698Z,11.38
2018-11-04T02:12:48.867Z,10.88
2018-11-04T02:15:16.056Z,11.45
2018-11-04T02:17:43.241Z,13.88
2018-11-04T02:20:11.819Z,11.83
2018-11-04T02:22:39.361Z,10.80
2018-11-04T02:25:07.047Z,12.50
2018-11-04T02:27:34.227Z,11.45
2018-11-04T02:30:01.498Z,10.63
2018-11-04T02:32:28.783Z,10.23
2018-11-04T02:34:55.970Z,9.80
2018-11-04T02:37:23.155Z,13.15
2018-11-04T02:39:50.338Z,13.45
2018-11-04T02:42:17.532Z,13.03
2018-11-04T02:44:44.807Z,14.28
2018-11-04T02:47:12.003Z,16.00
2018-11-04T02:49:39.311Z,14.63
2018-11-04T02:52:07.382Z,15.40
2018-11-04T02:54:35.955Z,15.55
2018-11-04T02:57:03.174Z,13.70
2018-11-04T02:59:30.379Z,14.60
2018-11-04T03:01:57.635Z,19.32
2018-11-04T03:04:24.803Z,15.85
2018-11-04T03:06:52.014Z,18.55
2018-11-04T03:09:19.479Z,16.50
2018-11-04T03:11:46.672Z,13.98
2018-11-04T03:14:13.949Z,19.10
2018-11-04T03:16:41.379Z,15.13
2018-11-04T03:19:08.832Z,17.02
2018-11-04T03:21:36.621Z,16.45
2018-11-04T03:24:03.977Z,14.80
2018-11-04T03:26:31.268Z,15.18
2018-11-04T03:28:58.474Z,17.50
2018-11-04T03:31:25.665Z,14.73
2018-11-04T03:33:52.856Z,18.55
2018-11-04T03:36:20.063Z,17.12
2018-11-04T03:38:47.245Z,15.28
2018-11-04T03:41:14.439Z,19.00
2018-11-04T03:43:41.635Z,18.45
2018-11-04T03:46:08.876Z,16.73
2018-11-04T03:48:36.103Z,17.10
2018-11-04T03:51:03.291Z,18.25
2018-11-04T03:53:30.472Z,17.07
2018-11-04T03:55:57.665Z,20.80
2018-11-04T03:58:24.890Z,18.45
2018-11-04T04:00:52.081Z,18.57
2018-11-04T04:03:19.271Z,18.80
2018-11-04T04:05:46.458Z,19.25
2018-11-04T04:08:13.659Z,18.23
2018-11-04T04:10:40.845Z,16.32
2018-11-04T04:13:08.038Z,17.10
2018-11-04T04:15:35.244Z,15.78
2018-11-04T04:18:02.439Z,16.45
2018-11-04T04:20:29.640Z,18.07
2018-11-04T04:22:56.826Z,16.40
2018-11-04T04:25:24.020Z,20.27
2018-11-04T04:27:51.208Z,16.42
2018-11-04T04:30:18.396Z,15.70
2018-11-04T04:32:45.586Z,19.25
2018-11-04T04:35:12.765Z,18.60
2018-11-04T04:37:40.448Z,19.75
2018-11-04T04:40:07.856Z,16.55
2018-11-04T04:42:35.034Z,19.25
2018-11-04T04:45:02.231Z,19.32
2018-11-04T04:47:29.434Z,17.60
2018-11-04T04:49:56.616Z,15.05
2018-11-04T04:52:23.789Z,18.85
2018-11-04T04:54:50.996Z,16.40
2018-11-04T04:57:18.170Z,20.48
2018-11-04T04:59:45.363Z,15.93
2018-11-04T05:02:12.554Z,18.62
2018-11-04T05:04:39.736Z,23.55
2018-11-04T05:07:06.931Z,20.57
2018-11-04T05:09:34.119Z,21.05
2018-11-04T05:12:01.308Z,18.15
2018-11-04T05:14:28.502Z,21.97
2018-11-04T05:16:55.674Z,15.72
2018-11-04T05:19:22.882Z,18.82
2018-11-04T05:21:50.079Z,19.77
2018-11-04T05:24:17.265Z,15.90
2018-11-04T05:26:44.464Z,23.87
2018-11-04T05:29:11.696Z,19.05
2018-11-04T05:31:38.907Z,16.65
2018-11-04T05:34:06.088Z,20.52
2018-11-04T05:36:33.271Z,17.02
2018-11-04T05:39:00.471Z,19.52
2018-11-04T05:41:27.651Z,18.25
2018-11-04T05:43:54.852Z,23.05
2018-11-04T05:46:22.026Z,23.62
2018-11-04T05:48:49.228Z,19.90
2018-11-04T05:51:16.410Z,18.45
2018-11-04T05:53:44.432Z,14.40
2018-11-04T05:56:11.627Z,16.82
2018-11-04T05:58:38.907Z,23.77
2018-11-04T06:01:06.578Z,15.98
2018-11-04T06:03:33.769Z,20.00
2018-11-04T06:06:00.958Z,16.25
2018-11-04T06:08:28.154Z,20.75
2018-11-04T06:10:55.348Z,20.05
2018-11-04T06:13:22.530Z,17.32
2018-11-04T06:15:49.735Z,18.92
2018-11-04T06:18:16.915Z,17.50
2018-11-04T06:20:44.137Z,14.33
2018-11-04T06:23:11.342Z,21.30
2018-11-04T06:25:38.528Z,20.15
2018-11-04T06:28:05.744Z,18.65
2018-11-04T06:30:32.921Z,15.18
2018-11-04T06:33:00.135Z,25.12
2018-11-04T06:35:27.320Z,17.80
2018-11-04T06:37:54.511Z,18.37
2018-11-04T06:40:21.719Z,15.70
2018-11-04T06:42:48.894Z,14.60
2018-11-04T06:45:16.096Z,13.28
2018-11-04T06:47:43.380Z,18.57
2018-11-04T06:50:12.039Z,13.28
2018-11-04T06:52:39.232Z,12.18
2018-11-04T06:55:06.864Z,14.00
2018-11-04T06:57:34.078Z,13.30
2018-11-04T07:00:01.328Z,15.40
2018-11-04T07:02:28.465Z,11.05
2018-11-04T07:04:55.697Z,12.78
2018-11-04T07:07:22.899Z,14.23
2018-11-04T07:09:50.100Z,13.88
2018-11-04T07:12:17.283Z,13.53
2018-11-04T07:14:44.478Z,10.95
2018-11-04T07:17:11.664Z,11.78
2018-11-04T07:19:38.830Z,10.75
2018-11-04T07:22:06.033Z,14.95
2018-11-04T07:24:33.222Z,18.90
2018-11-04T07:27:00.407Z,11.73
2018-11-04T07:29:27.596Z,11.38
2018-11-04T07:31:54.778Z,9.50
2018-11-04T07:34:21.980Z,12.88
2018-11-04T07:36:49.247Z,11.10
2018-11-04T07:39:16.432Z,8.45
2018-11-04T07:41:44.678Z,13.35
2018-11-04T07:44:11.926Z,10.98
2018-11-04T07:46:39.076Z,9.18
2018-11-04T07:49:06.257Z,8.48
2018-11-04T07:51:33.509Z,8.40
2018-11-04T07:54:00.626Z,8.95
2018-11-04T07:56:27.810Z,11.25
2018-11-04T07:58:54.995Z,10.85
2018-11-04T08:01:22.189Z,11.08
2018-11-04T08:03:49.384Z,8.35
2018-11-04T08:06:16.566Z,10.28
2018-11-04T08:08:43.844Z,8.18
2018-11-04T08:11:11.036Z,10.10
2018-11-04T08:13:38.336Z,9.53
2018-11-04T08:16:05.443Z,9.68
2018-11-04T08:18:32.626Z,10.25
2018-11-04T08:20:59.826Z,12.00
2018-11-04T08:23:27.018Z,10.30
2018-11-04T08:25:54.203Z,10.45
2018-11-04T08:28:21.391Z,7.25
2018-11-04T08:30:48.573Z,9.25
2018-11-04T08:33:15.760Z,10.48
2018-11-04T08:35:42.951Z,8.23
2018-11-04T08:38:10.130Z,11.28
2018-11-04T08:40:37.313Z,8.83
2018-11-04T08:43:04.506Z,10.32
2018-11-04T08:45:31.764Z,10.65
2018-11-04T08:47:58.909Z,10.88
2018-11-04T08:50:26.096Z,10.95
2018-11-04T08:52:53.291Z,10.03
2018-11-04T08:55:20.499Z,8.90
2018-11-04T08:57:47.681Z,12.15
2018-11-04T09:00:15.652Z,10.53
2018-11-04T09:02:43.526Z,9.95
2018-11-04T09:05:10.897Z,8.50
2018-11-04T09:07:38.313Z,8.10
2018-11-04T09:10:06.823Z,9.75
2018-11-04T09:12:33.998Z,8.90
2018-11-04T09:15:01.202Z,9.15
2018-11-04T09:17:28.374Z,9.75
2018-11-04T09:19:55.570Z,14.93
2018-11-04T09:22:22.953Z,17.45
2018-11-04T09:24:50.309Z,14.18
2018-11-04T09:27:19.015Z,17.37
2018-11-04T09:29:46.215Z,14.13
2018-11-04T09:32:13.914Z,11.75
2018-11-04T09:34:41.536Z,11.63
2018-11-04T09:37:08.722Z,16.60
2018-11-04T09:39:36.851Z,10.28
2018-11-04T09:42:04.279Z,14.63
2018-11-04T09:44:31.613Z,15.72
2018-11-04T09:46:58.909Z,14.78
2018-11-04T09:49:26.223Z,10.98
2018-11-04T09:51:53.579Z,11.38
2018-11-04T09:54:20.759Z,14.80
2018-11-04T09:56:48.103Z,12.82
2018-11-04T09:59:15.287Z,14.70
2018-11-04T10:01:42.519Z,11.57
2018-11-04T10:04:09.754Z,13.53
2018-11-04T10:06:37.617Z,11.33
2018-11-04T10:09:06.415Z,10.85
2018-11-04T10:11:33.619Z,11.63
2018-11-04T10:14:00.915Z,13.38
2018-11-04T10:16:28.217Z,14.63
2018-11-04T10:18:55.374Z,12.15
2018-11-04T10:21:22.528Z,10.65
2018-11-04T10:23:49.702Z,15.03
2018-11-04T10:26:16.890Z,10.10
2018-11-04T10:28:44.070Z,12.43
2018-11-04T10:31:11.272Z,11.03
2018-11-04T10:33:38.449Z,11.22
2018-11-04T10:36:05.963Z,13.10
2018-11-04T10:38:33.177Z,10.80
2018-11-04T10:41:00.374Z,9.58
2018-11-04T10:43:27.562Z,9.65
2018-11-04T10:45:54.845Z,8.00
2018-11-04T10:48:22.068Z,11.18
2018-11-04T10:50:49.728Z,11.10
2018-11-04T10:53:17.571Z,12.68
2018-11-04T10:55:45.184Z,10.85
2018-11-04T10:58:12.346Z,12.68
2018-11-04T11:00:44.935Z,8.98
2018-11-04T11:03:12.173Z,15.32
2018-11-04T11:05:39.356Z,8.98
2018-11-04T11:08:06.560Z,12.88
2018-11-04T11:10:33.753Z,8.58
2018-11-04T11:13:00.934Z,7.15
2018-11-04T11:15:28.119Z,11.20
2018-11-04T11:17:55.286Z,7.78
2018-11-04T11:20:22.483Z,7.65
2018-11-04T11:22:49.765Z,9.03
2018-11-04T11:25:16.890Z,9.95
2018-11-04T11:27:44.227Z,12.23
2018-11-04T11:30:11.486Z,11.48
2018-11-04T11:32:38.631Z,11.53
2018-11-04T11:35:06.373Z,9.80
2018-11-04T11:37:33.685Z,9.90
2018-11-04T11:40:00.782Z,6.85
2018-11-04T11:42:28.414Z,12.40
2018-11-04T11:44:55.994Z,21.37
2018-11-04T11:47:23.159Z,10.90
2018-11-04T11:49:50.847Z,12.58
2018-11-04T11:52:18.084Z,14.20
2018-11-04T11:54:45.289Z,13.80
2018-11-04T11:57:12.504Z,17.98
2018-11-04T11:59:39.713Z,15.58
2018-11-04T12:02:06.970Z,13.22
2018-11-04T12:04:34.188Z,13.15
2018-11-04T12:07:01.413Z,15.10
2018-11-04T12:09:28.648Z,11.18
2018-11-04T12:11:55.853Z,10.55
2018-11-04T12:14:23.092Z,15.00
2018-11-04T12:16:50.308Z,13.95
2018-11-04T12:19:17.495Z,11.03
2018-11-04T12:21:44.706Z,18.20
2018-11-04T12:24:11.890Z,10.05
2018-11-04T12:26:39.107Z,12.73
2018-11-04T12:29:06.763Z,12.10
2018-11-04T12:31:33.958Z,13.38
2018-11-04T12:34:01.194Z,13.55
2018-11-04T12:36:28.402Z,19.02
2018-11-04T12:38:55.628Z,17.40
2018-11-04T12:41:22.850Z,12.58
2018-11-04T12:43:50.049Z,11.93
2018-11-04T12:46:17.258Z,12.28
2018-11-04T12:48:44.456Z,17.90
2018-11-04T12:51:11.660Z,12.88
2018-11-04T12:53:38.849Z,12.10
2018-11-04T12:56:06.072Z,13.65
2018-11-04T13:01:17.200Z,14.05
2018-11-04T13:03:44.545Z,12.73
2018-11-04T13:08:57.173Z,15.32
2018-11-04T13:11:25.163Z,20.45
2018-11-04T13:13:54.054Z,14.00
2018-11-04T13:16:21.895Z,13.28
2018-11-04T13:21:07.306Z,11.00
2018-11-04T13:23:47.229Z,11.95
2018-11-04T13:26:20.092Z,11.95
2018-11-04T13:29:01.953Z,17.12
2018-11-04T13:31:44.929Z,10.80
2018-11-04T13:34:24.230Z,11.73
2018-11-04T13:37:06.303Z,18.55
2018-11-04T13:39:45.279Z,19.15
2018-11-04T13:42:15.829Z,11.30
2018-11-04T13:44:45.422Z,10.70
2018-11-04T13:47:15.047Z,12.60
2018-11-04T13:49:45.199Z,10.70
2018-11-04T13:52:13.702Z,11.75
2018-11-04T13:54:53.861Z,11.28
2018-11-04T13:57:33.035Z,11.57
2018-11-04T14:00:13.914Z,14.70
2018-11-04T14:02:54.686Z,12.05
2018-11-04T14:05:35.298Z,12.80
2018-11-04T14:10:59.435Z,10.23
2018-11-04T14:13:31.065Z,10.30
2018-11-04T14:16:09.518Z,11.95
2018-11-04T14:18:48.385Z,11.10
2018-11-04T14:21:29.625Z,10.58
2018-11-04T14:24:08.573Z,11.03
2018-11-04T14:26:49.161Z,12.28
2018-11-04T14:29:30.925Z,10.53
2018-11-04T14:32:13.116Z,9.65
2018-11-04T14:34:52.758Z,11.60
2018-11-04T14:37:32.748Z,12.05
2018-11-04T14:40:11.017Z,13.70
2018-11-04T14:42:49.181Z,15.55
2018-11-04T14:45:29.326Z,11.75
2018-11-04T14:48:08.015Z,12.80
2018-11-04T14:50:45.459Z,11.18
2018-11-04T14:53:26.274Z,11.12
2018-11-04T14:56:05.299Z,13.15
2018-11-04T14:58:35.079Z,14.87
2018-11-04T15:01:15.644Z,12.00
2018-11-04T15:03:56.643Z,10.43
2018-11-04T15:06:35.432Z,9.50
2018-11-04T15:09:17.069Z,12.60
2018-11-04T15:11:55.714Z,11.00
2018-11-04T15:14:35.114Z,11.08
2018-11-04T15:17:15.050Z,10.88
2018-11-04T15:19:53.776Z,9.40
2018-11-04T15:22:34.053Z,12.33
2018-11-04T15:25:13.849Z,12.73
2018-11-04T15:27:54.392Z,10.28
2018-11-04T15:30:35.394Z,12.88
2018-11-04T15:33:16.520Z,10.50
2018-11-04T15:35:55.590Z,10.65
2018-11-04T15:38:34.504Z,10.75
2018-11-04T15:41:14.247Z,13.95
2018-11-04T15:43:51.460Z,12.05
2018-11-04T15:46:28.928Z,11.35
2018-11-04T15:49:04.088Z,10.70
2018-11-04T15:51:43.740Z,10.05
2018-11-04T15:54:18.897Z,11.78
2018-11-04T15:56:56.955Z,12.15
2018-11-04T15:59:36.644Z,10.85
2018-11-04T16:02:19.478Z,9.25
2018-11-04T16:05:02.339Z,16.07
2018-11-04T16:07:42.340Z,10.50
2018-11-04T16:10:22.154Z,14.55
2018-11-04T16:13:01.750Z,13.08
2018-11-04T16:15:41.515Z,18.55
2018-11-04T16:18:21.033Z,11.93
2018-11-04T16:21:01.323Z,9.28
2018-11-04T16:23:41.214Z,10.23
2018-11-04T16:29:01.976Z,10.80
2018-11-04T16:31:43.018Z,12.03
2018-11-04T16:34:22.056Z,14.78
2018-11-04T16:37:02.348Z,11.80
2018-11-04T16:39:41.363Z,13.93
2018-11-04T16:42:20.876Z,16.05
2018-11-04T16:45:01.421Z,21.35
2018-11-04T16:47:40.238Z,25.20
2018-11-04T16:50:20.154Z,26.87
2018-11-04T16:52:58.397Z,31.33
2018-11-04T16:55:40.538Z,25.08
2018-11-04T16:58:20.155Z,33.13
2018-11-04T17:00:59.701Z,42.08
2018-11-04T17:03:38.909Z,40.50
2018-11-04T17:06:21.058Z,39.60
2018-11-04T17:08:59.644Z,28.02
2018-11-04T17:11:39.537Z,20.05
2018-11-04T17:14:17.166Z,21.23
2018-11-04T17:16:51.716Z,19.92
2018-11-04T17:19:31.987Z,18.35
2018-11-04T17:22:07.215Z,12.80
2018-11-04T17:24:46.643Z,14.75
2018-11-04T17:27:21.135Z,15.75
2018-11-04T17:30:00.502Z,10.03
2018-11-04T17:32:41.319Z,11.73
2018-11-04T17:35:21.884Z,14.20
2018-11-04T17:38:00.404Z,11.25
2018-11-04T17:40:39.995Z,10.30
2018-11-04T17:43:20.563Z,14.28
2018-11-04T17:45:58.362Z,13.00
2018-11-04T17:48:38.919Z,17.50
2018-11-04T17:51:20.408Z,12.00
2018-11-04T17:54:00.073Z,14.73
2018-11-04T17:56:41.621Z,12.45
2018-11-04T17:59:21.387Z,14.93
2018-11-04T18:02:00.102Z,13.60
2018-11-04T18:04:40.516Z,15.55
2018-11-04T18:07:20.110Z,14.58
2018-11-04T18:09:58.999Z,13.32
2018-11-04T18:12:37.642Z,16.00
2018-11-04T18:15:18.207Z,12.28
2018-11-04T18:17:58.153Z,16.00
2018-11-04T18:20:36.641Z,14.28
2018-11-04T18:23:16.643Z,16.48
2018-11-04T18:25:56.425Z,12.78
2018-11-04T18:28:36.593Z,19.25
2018-11-04T18:31:18.183Z,17.67
2018-11-04T18:33:58.325Z,14.50
2018-11-04T18:36:39.372Z,11.33
2018-11-04T18:39:16.641Z,15.30
2018-11-04T18:41:56.475Z,16.25
2018-11-04T18:44:34.826Z,15.80
2018-11-04T18:47:15.056Z,15.90
2018-11-04T18:49:54.196Z,15.68
2018-11-04T18:52:33.976Z,15.35
2018-11-04T18:55:16.038Z,17.73
2018-11-04T18:57:54.274Z,15.45
2018-11-04T19:00:35.689Z,15.55
2018-11-04T19:03:14.079Z,16.73
2018-11-04T19:05:54.322Z,14.58
2018-11-04T19:08:32.318Z,15.28
2018-11-04T19:11:09.095Z,18.02
2018-11-04T19:13:48.022Z,20.48
2018-11-04T19:16:24.590Z,18.15
2018-11-04T19:19:02.733Z,17.87
2018-11-04T19:21:42.273Z,16.82
2018-11-04T19:24:21.514Z,18.40
2018-11-04T19:26:56.641Z,20.88
2018-11-04T19:29:36.398Z,25.00
2018-11-04T19:32:16.489Z,16.82
2018-11-04T19:34:55.480Z,17.95
2018-11-04T19:37:39.198Z,23.30
2018-11-04T19:40:19.568Z,20.88
2018-11-04T19:42:58.847Z,19.57
2018-11-04T19:45:38.410Z,19.27
2018-11-04T19:48:17.590Z,16.12
2018-11-04T19:50:56.664Z,16.97
2018-11-04T19:53:36.642Z,15.35
2018-11-04T19:56:16.641Z,16.35
2018-11-04T19:58:56.364Z,13.62
2018-11-04T20:01:35.715Z,17.85
2018-11-04T20:04:12.359Z,19.48
2018-11-04T20:06:53.078Z,19.60
2018-11-04T20:09:33.169Z,17.85
2018-11-04T20:12:16.636Z,16.67
2018-11-04T20:14:55.013Z,20.25
2018-11-04T20:17:34.590Z,20.20
2018-11-04T20:20:20.568Z,16.65
2018-11-04T20:23:02.277Z,15.98
2018-11-04T20:25:43.190Z,14.87
2018-11-04T20:28:23.109Z,18.30
2018-11-04T20:31:02.401Z,14.73
2018-11-04T20:33:43.977Z,18.30
2018-11-04T20:36:21.983Z,19.25
2018-11-04T20:39:05.151Z,18.80
2018-11-04T20:41:45.765Z,24.82
2018-11-04T20:44:26.641Z,33.02
2018-11-04T20:47:08.326Z,28.52
2018-11-04T20:49:46.272Z,22.17
2018-11-04T20:52:26.643Z,27.98
2018-11-04T20:55:03.474Z,33.75
2018-11-04T20:57:46.680Z,26.97
2018-11-04T21:00:26.133Z,28.92
2018-11-04T21:03:08.125Z,27.58
2018-11-04T21:05:48.041Z,23.22
2018-11-04T21:08:26.659Z,23.38
2018-11-04T21:11:05.746Z,37.10
2018-11-04T21:13:47.812Z,29.25
2018-11-04T21:16:27.886Z,24.87
2018-11-04T21:19:08.447Z,14.98
2018-11-04T21:21:48.893Z,17.95
2018-11-04T21:24:28.478Z,18.40
2018-11-04T21:27:06.645Z,20.88
2018-11-04T21:29:46.151Z,18.50
2018-11-04T21:32:25.904Z,21.45
2018-11-04T21:35:04.371Z,23.12
2018-11-04T21:37:46.706Z,15.88
2018-11-04T21:40:26.528Z,16.87
2018-11-04T21:43:06.037Z,22.87
2018-11-04T21:45:44.189Z,21.25
2018-11-04T21:48:25.854Z,31.05
2018-11-04T21:51:06.540Z,21.35
2018-11-04T21:53:46.642Z,25.17
2018-11-04T21:56:25.679Z,18.62
2018-11-04T21:59:06.272Z,25.62
2018-11-04T22:01:46.260Z,20.72
2018-11-04T22:04:25.687Z,19.35
2018-11-04T22:07:04.769Z,18.65
2018-11-04T22:09:43.836Z,18.67
2018-11-04T22:12:24.051Z,17.95
2018-11-04T22:15:03.822Z,16.05
2018-11-04T22:17:43.858Z,19.42
2018-11-04T22:20:22.801Z,16.60
2018-11-04T22:23:03.174Z,15.45
2018-11-04T22:25:43.787Z,21.68
2018-11-04T22:28:18.330Z,19.42
2018-11-04T22:30:57.594Z,21.07
2018-11-04T22:33:36.238Z,21.48
2018-11-04T22:36:16.443Z,24.85
2018-11-04T22:38:56.346Z,17.02
2018-11-04T22:41:35.786Z,18.15
2018-11-04T22:44:14.604Z,20.65
2018-11-04T22:46:55.138Z,17.77
2018-11-04T22:49:35.124Z,19.32
2018-11-04T22:52:16.625Z,20.15
2018-11-04T22:54:54.920Z,18.85
2018-11-04T22:57:34.912Z,19.65
2018-11-04T23:00:14.900Z,21.12
2018-11-04T23:02:56.642Z,24.57
2018-11-04T23:05:36.540Z,18.00
2018-11-04T23:08:06.435Z,24.60
2018-11-04T23:10:45.242Z,19.07
2018-11-04T23:13:26.133Z,19.35
2018-11-04T23:16:02.761Z,16.87
2018-11-04T23:18:41.453Z,16.97
2018-11-04T23:21:24.182Z,27.27
2018-11-04T23:24:04.526Z,20.65
2018-11-04T23:26:45.226Z,26.00
2018-11-04T23:29:24.782Z,21.90
2018-11-04T23:32:05.540Z,18.90
2018-11-04T23:34:45.667Z,24.60
2018-11-04T23:37:25.683Z,18.27
2018-11-04T23:40:06.643Z,21.95
2018-11-04T23:42:45.842Z,17.05
2018-11-04T23:45:25.906Z,20.55
2018-11-04T23:48:06.642Z,22.52
2018-11-04T23:50:43.510Z,18.95
2018-11-04T23:53:22.277Z,20.90
2018-11-04T23:55:59.498Z,18.37
2018-11-04T23:58:38.593Z,19.17
